createdAt,value
2023-04-30T00:00:22.560Z,21.63
2023-04-30T00:00:56.702Z,20.88
2023-04-30T00:01:31.524Z,18.58
2023-04-30T00:02:05.376Z,21.90
2023-04-30T00:02:39.632Z,19.15
2023-04-30T00:03:15.213Z,24.92
2023-04-30T00:03:49.574Z,16.73
2023-04-30T00:04:24.853Z,22.52
2023-04-30T00:05:01.173Z,19.60
2023-04-30T00:05:34.105Z,21.73
2023-04-30T00:06:07.573Z,22.42
2023-04-30T00:06:43.000Z,27.75
2023-04-30T00:07:16.964Z,22.92
2023-04-30T00:07:51.558Z,21.73
2023-04-30T00:08:27.904Z,20.05
2023-04-30T00:09:01.716Z,24.92
2023-04-30T00:09:35.858Z,28.38
2023-04-30T00:10:12.522Z,20.15
2023-04-30T00:10:46.408Z,19.77
2023-04-30T00:11:20.345Z,24.38
2023-04-30T00:11:54.220Z,20.60
2023-04-30T00:12:29.445Z,18.90
2023-04-30T00:13:03.837Z,23.40
2023-04-30T00:13:37.513Z,19.60
2023-04-30T00:14:11.561Z,19.13
2023-04-30T00:14:44.462Z,20.27
2023-04-30T00:15:19.602Z,20.52
2023-04-30T00:15:53.527Z,25.73
2023-04-30T00:16:26.296Z,24.90
2023-04-30T00:16:59.487Z,23.48
2023-04-30T00:17:34.179Z,25.98
2023-04-30T00:18:08.776Z,16.60
2023-04-30T00:18:41.935Z,23.77
2023-04-30T00:19:17.674Z,23.25
2023-04-30T00:19:52.033Z,27.77
2023-04-30T00:20:26.624Z,18.50
2023-04-30T00:21:01.442Z,23.15
2023-04-30T00:21:34.583Z,21.52
2023-04-30T00:22:08.104Z,26.67
2023-04-30T00:22:43.377Z,21.73
2023-04-30T00:23:17.402Z,18.60
2023-04-30T00:23:50.769Z,22.35
2023-04-30T00:24:27.154Z,24.42
2023-04-30T00:25:01.587Z,21.73
2023-04-30T00:25:35.687Z,21.05
2023-04-30T00:26:09.764Z,20.85
2023-04-30T00:26:44.546Z,19.02
2023-04-30T00:27:19.037Z,21.85
2023-04-30T00:27:52.272Z,25.60
2023-04-30T00:28:27.256Z,19.13
2023-04-30T00:29:01.204Z,20.40
2023-04-30T00:29:34.119Z,20.45
2023-04-30T00:30:10.664Z,19.50
2023-04-30T00:30:45.402Z,21.17
2023-04-30T00:31:18.782Z,23.88
2023-04-30T00:31:54.460Z,24.67
2023-04-30T00:32:28.911Z,18.63
2023-04-30T00:33:02.720Z,20.40
2023-04-30T00:33:37.888Z,21.65
2023-04-30T00:34:11.840Z,26.77
2023-04-30T00:34:46.107Z,31.73
2023-04-30T00:35:21.466Z,25.52
2023-04-30T00:35:56.473Z,25.85
2023-04-30T00:36:31.268Z,23.05
2023-04-30T00:37:05.114Z,20.05
2023-04-30T00:37:38.876Z,16.60
2023-04-30T00:38:13.442Z,23.38
2023-04-30T00:38:47.197Z,22.55
2023-04-30T00:39:20.293Z,18.13
2023-04-30T00:39:55.249Z,24.08
2023-04-30T00:40:28.277Z,21.75
2023-04-30T00:41:01.898Z,24.63
2023-04-30T00:41:37.847Z,24.58
2023-04-30T00:42:11.192Z,24.23
2023-04-30T00:42:44.950Z,22.70
2023-04-30T00:43:19.970Z,24.88
2023-04-30T00:43:53.009Z,30.23
2023-04-30T00:44:26.437Z,19.13
2023-04-30T00:45:01.429Z,19.85
2023-04-30T00:45:36.130Z,20.67
2023-04-30T00:46:11.751Z,17.73
2023-04-30T00:46:47.700Z,23.88
2023-04-30T00:47:21.207Z,23.35
2023-04-30T00:47:55.263Z,21.38
2023-04-30T00:48:30.230Z,22.13
2023-04-30T00:49:05.580Z,24.63
2023-04-30T00:49:39.902Z,19.50
2023-04-30T00:50:16.270Z,23.20
2023-04-30T00:50:50.095Z,21.50
2023-04-30T00:51:24.121Z,23.73
2023-04-30T00:51:58.470Z,18.10
2023-04-30T00:52:31.986Z,21.40
2023-04-30T00:53:05.080Z,20.83
2023-04-30T00:53:41.512Z,28.05
2023-04-30T00:54:15.386Z,24.67
2023-04-30T00:54:48.644Z,23.33
2023-04-30T00:55:23.047Z,20.75
2023-04-30T00:55:58.090Z,24.60
2023-04-30T00:56:32.455Z,15.70
2023-04-30T00:57:09.860Z,22.52
2023-04-30T00:57:44.269Z,24.52
2023-04-30T00:58:17.870Z,23.13
2023-04-30T00:58:57.140Z,24.90
2023-04-30T00:59:31.200Z,24.67
2023-04-30T01:00:06.364Z,21.00
2023-04-30T01:00:43.358Z,30.55
2023-04-30T01:01:18.666Z,21.77
2023-04-30T01:01:53.275Z,18.42
2023-04-30T01:02:28.267Z,20.70
2023-04-30T01:03:02.308Z,20.92
2023-04-30T01:03:37.021Z,21.83
2023-04-30T01:04:12.392Z,21.67
2023-04-30T01:04:47.462Z,24.98
2023-04-30T01:05:23.666Z,26.60
2023-04-30T01:05:59.012Z,19.67
2023-04-30T01:06:33.254Z,26.73
2023-04-30T01:07:07.031Z,26.00
2023-04-30T01:07:45.159Z,22.58
2023-04-30T01:08:19.320Z,19.58
2023-04-30T01:08:52.614Z,20.50
2023-04-30T01:09:28.112Z,25.38
2023-04-30T01:10:02.661Z,28.02
2023-04-30T01:10:42.695Z,23.40
2023-04-30T01:12:43.338Z,17.50
2023-04-30T01:13:27.331Z,27.55
2023-04-30T01:14:09.603Z,25.77
2023-04-30T01:14:48.115Z,22.55
2023-04-30T01:15:28.557Z,23.35
2023-04-30T01:16:12.296Z,25.13
2023-04-30T01:16:54.126Z,21.48
2023-04-30T01:17:35.459Z,31.73
2023-04-30T01:18:25.249Z,30.25
2023-04-30T01:19:06.520Z,24.38
2023-04-30T01:19:45.098Z,23.33
2023-04-30T01:20:21.040Z,25.67
2023-04-30T01:21:00.508Z,27.23
2023-04-30T01:21:34.013Z,25.42
2023-04-30T01:22:12.114Z,24.95
2023-04-30T01:22:51.304Z,31.48
2023-04-30T01:23:39.274Z,23.30
2023-04-30T01:24:33.128Z,22.85
2023-04-30T01:25:34.481Z,25.52
2023-04-30T01:26:16.027Z,18.80
2023-04-30T01:27:04.614Z,28.35
2023-04-30T01:28:03.494Z,26.90
2023-04-30T01:28:39.168Z,23.73
2023-04-30T01:29:16.355Z,26.80
2023-04-30T01:29:52.016Z,23.10
2023-04-30T01:30:26.852Z,28.10
2023-04-30T01:31:01.667Z,25.35
2023-04-30T01:31:36.573Z,31.90
2023-04-30T01:32:12.077Z,25.63
2023-04-30T01:32:48.339Z,27.02
2023-04-30T01:33:22.268Z,26.30
2023-04-30T01:33:57.809Z,23.63
2023-04-30T01:34:33.471Z,25.48
2023-04-30T01:35:08.410Z,27.42
2023-04-30T01:36:00.147Z,26.55
2023-04-30T01:36:57.471Z,27.27
2023-04-30T01:37:41.769Z,30.02
2023-04-30T01:38:26.574Z,29.48
2023-04-30T01:39:35.567Z,28.60
2023-04-30T01:40:25.388Z,30.20
2023-04-30T01:41:02.933Z,30.30
2023-04-30T01:41:41.050Z,24.02
2023-04-30T01:42:21.913Z,25.23
2023-04-30T01:43:13.947Z,28.55
2023-04-30T01:43:57.444Z,26.48
2023-04-30T01:45:00.401Z,26.75
2023-04-30T01:45:46.945Z,24.63
2023-04-30T01:46:28.148Z,25.88
2023-04-30T01:47:09.251Z,25.55
2023-04-30T01:47:50.538Z,24.00
2023-04-30T01:48:34.450Z,28.27
2023-04-30T01:49:18.572Z,25.83
2023-04-30T01:50:07.687Z,27.00
2023-04-30T01:50:48.207Z,30.88
2023-04-30T01:51:31.955Z,24.55
2023-04-30T01:52:15.762Z,25.58
2023-04-30T01:52:53.379Z,24.15
2023-04-30T01:53:40.738Z,23.10
2023-04-30T01:54:24.933Z,21.40
2023-04-30T01:55:05.477Z,25.90
2023-04-30T01:56:31.087Z,27.23
2023-04-30T01:57:07.679Z,31.15
2023-04-30T01:57:47.247Z,26.65
2023-04-30T01:58:27.370Z,26.88
2023-04-30T01:59:37.618Z,31.10
2023-04-30T02:00:12.241Z,30.58
2023-04-30T02:00:50.146Z,23.63
2023-04-30T02:01:30.430Z,25.65
2023-04-30T02:02:38.338Z,27.33
2023-04-30T02:03:12.248Z,23.90
2023-04-30T02:03:45.966Z,26.30
2023-04-30T02:04:20.877Z,20.55
2023-04-30T02:04:53.974Z,23.70
2023-04-30T02:05:28.162Z,29.15
2023-04-30T02:06:03.905Z,31.77
2023-04-30T02:06:37.246Z,25.02
2023-04-30T02:07:10.797Z,23.08
2023-04-30T02:07:48.650Z,24.20
2023-04-30T02:08:24.450Z,27.42
2023-04-30T02:09:03.448Z,26.80
2023-04-30T02:09:38.509Z,23.95
2023-04-30T02:10:13.537Z,20.17
2023-04-30T02:10:48.126Z,24.60
2023-04-30T02:11:24.738Z,20.70
2023-04-30T02:11:58.099Z,23.42
2023-04-30T02:12:31.572Z,27.80
2023-04-30T02:13:05.451Z,24.83
2023-04-30T02:13:41.001Z,27.02
2023-04-30T02:14:14.925Z,29.02
2023-04-30T02:15:11.700Z,23.25
2023-04-30T02:15:47.452Z,27.85
2023-04-30T02:16:21.238Z,32.65
2023-04-30T02:16:56.942Z,25.98
2023-04-30T02:17:30.727Z,26.20
2023-04-30T02:18:04.153Z,23.17
2023-04-30T02:18:39.957Z,29.88
2023-04-30T02:19:13.853Z,25.40
2023-04-30T02:19:47.030Z,28.55
2023-04-30T02:20:22.229Z,35.47
2023-04-30T02:20:56.664Z,23.85
2023-04-30T02:21:29.812Z,29.92
2023-04-30T02:22:04.378Z,27.25
2023-04-30T02:22:37.748Z,24.52
2023-04-30T02:23:11.322Z,26.40
2023-04-30T02:23:46.851Z,27.38
2023-04-30T02:24:21.236Z,24.55
2023-04-30T02:24:56.555Z,28.40
2023-04-30T02:25:33.169Z,28.83
2023-04-30T02:26:08.320Z,26.25
2023-04-30T02:26:42.614Z,28.35
2023-04-30T02:27:17.085Z,27.38
2023-04-30T02:27:51.661Z,29.02
2023-04-30T02:28:26.834Z,24.10
2023-04-30T02:29:01.985Z,32.15
2023-04-30T02:29:36.334Z,24.63
2023-04-30T02:30:10.370Z,24.70
2023-04-30T02:30:45.130Z,31.15
2023-04-30T02:31:19.599Z,29.63
2023-04-30T02:31:53.445Z,35.80
2023-04-30T02:32:27.437Z,31.63
2023-04-30T02:33:02.872Z,21.05
2023-04-30T02:33:37.354Z,20.13
2023-04-30T02:34:10.833Z,30.88
2023-04-30T02:34:45.376Z,24.95
2023-04-30T02:35:19.678Z,25.60
2023-04-30T02:35:53.100Z,24.83
2023-04-30T02:36:27.301Z,28.42
2023-04-30T02:37:03.992Z,26.15
2023-04-30T02:37:39.469Z,27.73
2023-04-30T02:38:14.100Z,29.33
2023-04-30T02:38:47.993Z,37.92
2023-04-30T02:39:22.489Z,24.70
2023-04-30T02:39:57.932Z,27.17
2023-04-30T02:40:32.142Z,28.17
2023-04-30T02:41:07.073Z,28.23
2023-04-30T02:41:40.512Z,24.48
2023-04-30T02:42:13.167Z,26.52
2023-04-30T02:42:47.383Z,24.75
2023-04-30T02:43:22.346Z,34.95
2023-04-30T02:43:58.951Z,36.85
2023-04-30T02:44:33.610Z,25.75
2023-04-30T02:45:09.570Z,23.70
2023-04-30T02:45:43.456Z,23.05
2023-04-30T02:46:17.287Z,27.92
2023-04-30T02:46:51.364Z,27.98
2023-04-30T02:47:26.372Z,22.02
2023-04-30T02:48:01.483Z,24.40
2023-04-30T02:48:35.288Z,31.40
2023-04-30T02:49:09.505Z,24.40
2023-04-30T02:49:44.596Z,27.75
2023-04-30T02:50:18.799Z,31.08
2023-04-30T02:50:52.779Z,31.75
2023-04-30T02:51:27.166Z,26.17
2023-04-30T02:51:59.604Z,26.02
2023-04-30T02:52:35.046Z,23.55
2023-04-30T02:53:08.092Z,23.45
2023-04-30T02:53:41.461Z,30.45
2023-04-30T02:54:15.238Z,26.67
2023-04-30T02:54:49.556Z,22.80
2023-04-30T02:55:23.521Z,29.55
2023-04-30T02:55:59.822Z,27.73
2023-04-30T02:56:33.672Z,25.58
2023-04-30T02:57:08.593Z,29.85
2023-04-30T02:57:44.158Z,28.27
2023-04-30T02:58:19.125Z,22.17
2023-04-30T02:58:54.368Z,26.45
2023-04-30T02:59:29.591Z,31.48
2023-04-30T03:00:05.643Z,28.80
2023-04-30T03:00:39.232Z,26.13
2023-04-30T03:01:14.421Z,24.80
2023-04-30T03:01:47.427Z,29.08
2023-04-30T03:02:22.147Z,22.77
2023-04-30T03:02:57.262Z,25.67
2023-04-30T03:03:30.438Z,26.95
2023-04-30T03:04:03.943Z,27.05
2023-04-30T03:04:39.705Z,24.45
2023-04-30T03:05:15.818Z,26.90
2023-04-30T03:05:50.023Z,23.85
2023-04-30T03:06:25.786Z,23.00
2023-04-30T03:07:00.635Z,28.30
2023-04-30T03:07:33.936Z,27.80
2023-04-30T03:08:10.176Z,23.85
2023-04-30T03:08:43.929Z,21.55
2023-04-30T03:09:18.115Z,27.88
2023-04-30T03:09:54.680Z,29.20
2023-04-30T03:10:27.515Z,32.13
2023-04-30T03:11:02.196Z,26.33
2023-04-30T03:11:37.830Z,26.30
2023-04-30T03:12:11.957Z,23.33
2023-04-30T03:12:46.113Z,30.10
2023-04-30T03:13:21.578Z,33.30
2023-04-30T03:13:54.995Z,25.40
2023-04-30T03:14:27.448Z,26.65
2023-04-30T03:15:01.587Z,25.17
2023-04-30T03:15:38.697Z,24.45
2023-04-30T03:16:14.287Z,25.88
2023-04-30T03:16:48.455Z,24.05
2023-04-30T03:17:24.353Z,22.02
2023-04-30T03:17:58.663Z,26.13
2023-04-30T03:18:32.292Z,20.98
2023-04-30T03:19:05.757Z,26.95
2023-04-30T03:19:41.056Z,28.45
2023-04-30T03:20:15.430Z,28.70
2023-04-30T03:20:48.022Z,26.08
2023-04-30T03:21:23.777Z,31.17
2023-04-30T03:21:57.987Z,27.50
2023-04-30T03:22:32.308Z,28.13
2023-04-30T03:23:07.112Z,22.58
2023-04-30T03:23:39.987Z,24.27
2023-04-30T03:24:13.186Z,26.08
2023-04-30T03:24:47.614Z,29.77
2023-04-30T03:25:21.239Z,28.55
2023-04-30T03:25:54.673Z,28.00
2023-04-30T03:26:29.369Z,23.50
2023-04-30T03:27:02.704Z,27.70
2023-04-30T03:27:36.913Z,23.00
2023-04-30T03:28:11.003Z,29.38
2023-04-30T03:28:45.515Z,32.25
2023-04-30T03:29:19.634Z,25.33
2023-04-30T03:29:53.585Z,28.15
2023-04-30T03:30:27.227Z,29.10
2023-04-30T03:31:05.515Z,24.75
2023-04-30T03:31:40.188Z,28.70
2023-04-30T03:32:13.636Z,22.70
2023-04-30T03:32:47.755Z,29.80
2023-04-30T03:33:22.861Z,32.83
2023-04-30T03:33:58.457Z,26.27
2023-04-30T03:34:32.001Z,28.08
2023-04-30T03:35:09.333Z,31.25
2023-04-30T03:35:42.966Z,30.77
2023-04-30T03:36:18.013Z,23.65
2023-04-30T03:36:51.263Z,24.40
2023-04-30T03:37:24.817Z,27.35
2023-04-30T03:37:58.908Z,23.15
2023-04-30T03:38:32.377Z,28.55
2023-04-30T03:39:05.502Z,30.88
2023-04-30T03:39:40.830Z,25.45
2023-04-30T03:40:15.349Z,27.33
2023-04-30T03:40:49.466Z,24.67
2023-04-30T03:41:24.159Z,25.00
2023-04-30T03:41:57.852Z,22.58
2023-04-30T03:42:31.117Z,24.80
2023-04-30T03:43:05.522Z,29.58
2023-04-30T03:43:39.713Z,32.13
2023-04-30T03:44:16.438Z,31.23
2023-04-30T03:44:51.328Z,28.13
2023-04-30T03:45:26.046Z,26.25
2023-04-30T03:46:01.896Z,26.38
2023-04-30T03:46:36.821Z,26.38
2023-04-30T03:47:09.929Z,28.25
2023-04-30T03:47:43.652Z,27.80
2023-04-30T03:48:17.980Z,26.60
2023-04-30T03:48:52.119Z,26.15
2023-04-30T03:49:25.569Z,27.52
2023-04-30T03:49:59.729Z,28.27
2023-04-30T03:50:33.421Z,22.92
2023-04-30T03:51:07.192Z,29.42
2023-04-30T03:51:43.757Z,27.20
2023-04-30T03:52:17.702Z,25.35
2023-04-30T03:52:50.414Z,31.10
2023-04-30T03:53:27.420Z,28.95
2023-04-30T03:54:01.533Z,26.48
2023-04-30T03:54:35.171Z,30.10
2023-04-30T03:55:11.510Z,26.30
2023-04-30T03:55:45.137Z,30.45
2023-04-30T03:56:18.866Z,28.10
2023-04-30T03:56:52.815Z,28.90
2023-04-30T03:57:27.311Z,29.70
2023-04-30T03:58:01.032Z,33.38
2023-04-30T03:58:35.517Z,26.23
2023-04-30T03:59:08.447Z,26.20
2023-04-30T03:59:42.908Z,31.88
2023-04-30T04:00:19.450Z,27.33
2023-04-30T04:00:55.439Z,30.98
2023-04-30T04:01:30.082Z,28.17
2023-04-30T04:02:04.598Z,26.85
2023-04-30T04:02:38.234Z,27.13
2023-04-30T04:03:13.239Z,28.02
2023-04-30T04:03:49.401Z,26.38
2023-04-30T04:04:23.559Z,27.55
2023-04-30T04:04:58.703Z,27.65
2023-04-30T04:05:34.840Z,24.00
2023-04-30T04:06:08.112Z,30.17
2023-04-30T04:06:41.598Z,28.58
2023-04-30T04:07:16.042Z,30.25
2023-04-30T04:07:49.968Z,25.63
2023-04-30T04:08:25.649Z,22.17
2023-04-30T04:09:01.754Z,26.13
2023-04-30T04:09:35.997Z,28.15
2023-04-30T04:10:10.785Z,28.10
2023-04-30T04:10:46.726Z,25.83
2023-04-30T04:11:19.672Z,28.83
2023-04-30T04:11:52.873Z,21.38
2023-04-30T04:12:28.750Z,24.35
2023-04-30T04:13:02.604Z,24.45
2023-04-30T04:13:36.134Z,21.52
2023-04-30T04:14:10.413Z,24.77
2023-04-30T04:14:44.787Z,21.63
2023-04-30T04:15:18.913Z,22.40
2023-04-30T04:15:53.390Z,23.08
2023-04-30T04:16:27.929Z,21.35
2023-04-30T04:17:02.596Z,23.27
2023-04-30T04:17:37.380Z,22.27
2023-04-30T04:18:11.388Z,18.75
2023-04-30T04:18:45.626Z,23.73
2023-04-30T04:19:20.197Z,22.80
2023-04-30T04:19:53.649Z,19.80
2023-04-30T04:20:30.878Z,21.25
2023-04-30T04:21:05.188Z,19.33
2023-04-30T04:21:39.707Z,19.85
2023-04-30T04:22:21.664Z,17.45
2023-04-30T04:22:55.947Z,20.42
2023-04-30T04:23:30.114Z,20.38
2023-04-30T04:24:08.452Z,18.00
2023-04-30T04:24:42.821Z,19.85
2023-04-30T04:25:20.068Z,20.13
2023-04-30T04:25:54.757Z,20.80
2023-04-30T04:26:29.034Z,23.60
2023-04-30T04:27:03.810Z,19.65
2023-04-30T04:27:37.413Z,21.45
2023-04-30T04:28:11.657Z,17.13
2023-04-30T04:28:48.565Z,18.58
2023-04-30T04:29:22.551Z,19.65
2023-04-30T04:29:57.116Z,26.38
2023-04-30T04:30:32.398Z,18.38
2023-04-30T04:31:05.972Z,21.70
2023-04-30T04:31:42.352Z,18.02
2023-04-30T04:32:19.229Z,19.42
2023-04-30T04:32:54.562Z,19.38
2023-04-30T04:33:29.714Z,17.00
2023-04-30T04:34:06.095Z,20.58
2023-04-30T04:34:40.652Z,22.10
2023-04-30T04:35:15.633Z,17.77
2023-04-30T04:35:51.624Z,17.35
2023-04-30T04:36:30.347Z,17.48
2023-04-30T04:37:04.628Z,17.90
2023-04-30T04:37:40.815Z,22.45
2023-04-30T04:38:14.866Z,18.00
2023-04-30T04:38:50.329Z,18.45
2023-04-30T04:39:24.227Z,21.58
2023-04-30T04:39:57.973Z,19.58
2023-04-30T04:40:32.012Z,20.77
2023-04-30T04:41:07.348Z,19.90
2023-04-30T04:41:40.212Z,16.52
2023-04-30T04:42:17.696Z,19.55
2023-04-30T04:42:52.134Z,18.23
2023-04-30T04:43:26.867Z,17.55
2023-04-30T04:44:02.476Z,18.25
2023-04-30T04:44:36.597Z,22.38
2023-04-30T04:45:10.252Z,18.88
2023-04-30T04:45:46.035Z,17.17
2023-04-30T04:46:21.545Z,13.02
2023-04-30T04:46:57.413Z,19.13
2023-04-30T04:47:33.126Z,16.23
2023-04-30T04:48:07.134Z,18.15
2023-04-30T04:48:41.888Z,20.98
2023-04-30T04:49:16.670Z,19.05
2023-04-30T04:49:50.053Z,16.10
2023-04-30T04:50:23.850Z,19.83
2023-04-30T04:50:58.825Z,16.45
2023-04-30T04:51:33.705Z,18.20
2023-04-30T04:52:07.385Z,17.77
2023-04-30T04:52:41.821Z,20.90
2023-04-30T04:53:16.787Z,18.33
2023-04-30T04:53:50.289Z,15.88
2023-04-30T04:54:25.074Z,18.15
2023-04-30T04:54:58.811Z,17.85
2023-04-30T04:55:33.289Z,16.13
2023-04-30T04:56:09.676Z,21.15
2023-04-30T04:56:43.725Z,15.88
2023-04-30T04:57:18.876Z,17.98
2023-04-30T04:57:51.853Z,15.77
2023-04-30T04:58:27.626Z,19.60
2023-04-30T04:59:02.750Z,24.13
2023-04-30T04:59:36.837Z,20.70
2023-04-30T05:00:13.242Z,19.63
2023-04-30T05:00:47.705Z,17.95
2023-04-30T05:01:21.451Z,19.45
2023-04-30T05:01:54.912Z,18.00
2023-04-30T05:02:31.397Z,18.50
2023-04-30T05:03:04.827Z,16.67
2023-04-30T05:03:38.959Z,22.30
2023-04-30T05:04:14.721Z,17.98
2023-04-30T05:04:50.814Z,18.60
2023-04-30T05:05:24.705Z,29.80
2023-04-30T05:05:59.745Z,17.23
2023-04-30T05:06:32.730Z,20.58
2023-04-30T05:07:06.505Z,18.77
2023-04-30T05:07:41.079Z,20.80
2023-04-30T05:08:15.558Z,21.80
2023-04-30T05:08:49.035Z,26.77
2023-04-30T05:09:23.313Z,18.38
2023-04-30T05:09:57.829Z,23.25
2023-04-30T05:10:30.585Z,20.48
2023-04-30T05:11:05.296Z,21.48
2023-04-30T05:11:39.254Z,20.42
2023-04-30T05:12:12.733Z,19.15
2023-04-30T05:12:47.461Z,16.10
2023-04-30T05:13:20.721Z,16.17
2023-04-30T05:13:54.073Z,18.10
2023-04-30T05:14:29.261Z,18.55
2023-04-30T05:15:02.340Z,20.00
2023-04-30T05:15:37.147Z,19.52
2023-04-30T05:16:12.022Z,17.25
2023-04-30T05:16:47.290Z,17.42
2023-04-30T05:17:21.304Z,15.65
2023-04-30T05:17:58.562Z,16.83
2023-04-30T05:18:33.415Z,24.15
2023-04-30T05:19:06.534Z,16.02
2023-04-30T05:19:40.363Z,15.63
2023-04-30T05:20:14.806Z,20.27
2023-04-30T05:20:48.681Z,15.13
2023-04-30T05:21:23.848Z,15.15
2023-04-30T05:21:57.752Z,12.88
2023-04-30T05:22:31.668Z,17.25
2023-04-30T05:23:07.133Z,14.98
2023-04-30T05:23:40.808Z,15.68
2023-04-30T05:24:16.385Z,15.35
2023-04-30T05:24:53.676Z,17.95
2023-04-30T05:25:28.071Z,17.67
2023-04-30T05:26:02.007Z,17.55
2023-04-30T05:26:37.016Z,16.85
2023-04-30T05:27:11.929Z,19.17
2023-04-30T05:27:44.725Z,18.40
2023-04-30T05:28:18.677Z,20.13
2023-04-30T05:28:53.461Z,17.73
2023-04-30T05:29:28.000Z,17.10
2023-04-30T05:30:03.388Z,19.08
2023-04-30T05:30:39.405Z,15.98
2023-04-30T05:31:12.802Z,18.08
2023-04-30T05:31:47.128Z,19.33
2023-04-30T05:32:22.745Z,16.50
2023-04-30T05:32:58.838Z,16.70
2023-04-30T05:33:33.398Z,18.25
2023-04-30T05:34:08.542Z,18.42
2023-04-30T05:34:43.335Z,22.80
2023-04-30T05:35:17.121Z,22.50
2023-04-30T05:35:50.211Z,18.10
2023-04-30T05:36:24.465Z,22.27
2023-04-30T05:36:58.301Z,21.08
2023-04-30T05:37:31.479Z,22.45
2023-04-30T05:38:06.186Z,20.50
2023-04-30T05:38:41.132Z,19.92
2023-04-30T05:39:15.026Z,19.05
2023-04-30T05:39:49.922Z,17.23
2023-04-30T05:40:24.453Z,19.20
2023-04-30T05:40:58.268Z,21.15
2023-04-30T05:41:33.253Z,19.45
2023-04-30T05:42:07.091Z,23.10
2023-04-30T05:42:41.156Z,16.10
2023-04-30T05:43:16.016Z,16.75
2023-04-30T05:43:49.080Z,14.68
2023-04-30T05:44:23.732Z,19.85
2023-04-30T05:44:58.082Z,16.08
2023-04-30T05:45:31.639Z,16.73
2023-04-30T05:46:05.693Z,18.50
2023-04-30T05:46:41.180Z,15.43
2023-04-30T05:47:14.804Z,20.38
2023-04-30T05:47:47.630Z,12.80
2023-04-30T05:48:22.826Z,15.52
2023-04-30T05:48:57.477Z,16.67
2023-04-30T05:49:33.708Z,14.68
2023-04-30T05:50:11.046Z,16.42
2023-04-30T05:50:44.278Z,12.70
2023-04-30T05:51:20.678Z,11.02
2023-04-30T05:51:54.007Z,11.95
2023-04-30T05:52:28.305Z,17.33
2023-04-30T05:53:02.957Z,14.82
2023-04-30T05:53:36.756Z,11.30
2023-04-30T05:54:11.202Z,12.02
2023-04-30T05:54:47.312Z,17.17
2023-04-30T05:55:23.189Z,13.52
2023-04-30T05:55:57.908Z,15.10
2023-04-30T05:56:31.668Z,13.23
2023-04-30T05:57:06.129Z,19.70
2023-04-30T05:57:39.916Z,13.18
2023-04-30T05:58:13.802Z,12.68
2023-04-30T05:58:48.716Z,18.02
2023-04-30T05:59:22.235Z,15.02
2023-04-30T05:59:55.936Z,10.30
2023-04-30T06:00:31.331Z,21.13
2023-04-30T06:01:07.183Z,13.70
2023-04-30T06:01:42.319Z,13.57
2023-04-30T06:02:16.378Z,14.45
2023-04-30T06:02:51.343Z,12.55
2023-04-30T06:03:26.087Z,14.80
2023-04-30T06:04:01.445Z,14.43
2023-04-30T06:04:35.419Z,13.60
2023-04-30T06:05:09.652Z,13.00
2023-04-30T06:05:45.173Z,15.70
2023-04-30T06:06:19.676Z,12.85
2023-04-30T06:06:53.934Z,13.32
2023-04-30T06:07:28.255Z,12.95
2023-04-30T06:08:01.146Z,14.13
2023-04-30T06:08:35.176Z,17.02
2023-04-30T06:09:10.779Z,11.95
2023-04-30T06:09:44.162Z,15.13
2023-04-30T06:10:18.741Z,14.38
2023-04-30T06:10:53.937Z,18.92
2023-04-30T06:11:28.704Z,12.27
2023-04-30T06:12:04.069Z,14.85
2023-04-30T06:12:38.001Z,15.63
2023-04-30T06:13:11.909Z,14.90
2023-04-30T06:13:49.896Z,14.25
2023-04-30T06:14:22.988Z,12.90
2023-04-30T06:14:58.183Z,14.18
2023-04-30T06:15:32.817Z,12.77
2023-04-30T06:16:09.378Z,15.70
2023-04-30T06:16:43.143Z,13.02
2023-04-30T06:17:17.224Z,13.73
2023-04-30T06:17:51.143Z,15.68
2023-04-30T06:18:26.736Z,13.43
2023-04-30T06:19:00.658Z,13.43
2023-04-30T06:19:35.200Z,16.25
2023-04-30T06:20:10.390Z,13.50
2023-04-30T06:20:45.752Z,11.55
2023-04-30T06:21:20.946Z,14.80
2023-04-30T06:21:55.904Z,14.20
2023-04-30T06:22:30.848Z,12.73
2023-04-30T06:23:04.149Z,13.80
2023-04-30T06:23:40.128Z,15.73
2023-04-30T06:24:13.815Z,12.15
2023-04-30T06:24:48.058Z,11.80
2023-04-30T06:25:21.646Z,13.63
2023-04-30T06:25:56.340Z,16.30
2023-04-30T06:26:30.340Z,13.85
2023-04-30T06:27:03.504Z,13.23
2023-04-30T06:27:37.669Z,11.43
2023-04-30T06:28:11.713Z,14.48
2023-04-30T06:28:46.184Z,11.98
2023-04-30T06:29:21.837Z,15.40
2023-04-30T06:29:55.947Z,11.48
2023-04-30T06:30:32.227Z,14.68
2023-04-30T06:31:07.892Z,10.82
2023-04-30T06:31:43.567Z,20.65
2023-04-30T06:32:18.486Z,14.25
2023-04-30T06:32:53.649Z,13.57
2023-04-30T06:33:28.683Z,13.88
2023-04-30T06:34:03.769Z,13.30
2023-04-30T06:34:38.400Z,10.60
2023-04-30T06:35:13.561Z,10.27
2023-04-30T06:35:48.298Z,14.63
2023-04-30T06:36:22.301Z,14.27
2023-04-30T06:36:56.281Z,14.13
2023-04-30T06:37:35.983Z,11.65
2023-04-30T06:38:09.802Z,15.32
2023-04-30T06:38:43.967Z,13.23
2023-04-30T06:39:18.370Z,15.63
2023-04-30T06:39:53.441Z,16.77
2023-04-30T06:40:27.646Z,19.02
2023-04-30T06:41:02.382Z,11.90
2023-04-30T06:41:34.902Z,14.18
2023-04-30T06:42:15.631Z,11.30
2023-04-30T06:42:51.017Z,14.45
2023-04-30T06:43:25.598Z,9.48
2023-04-30T06:43:59.767Z,14.57
2023-04-30T06:44:35.632Z,11.23
2023-04-30T06:45:15.336Z,14.77
2023-04-30T06:45:50.736Z,9.13
2023-04-30T06:46:24.850Z,7.68
2023-04-30T06:46:57.531Z,15.63
2023-04-30T06:47:34.998Z,9.00
2023-04-30T06:48:09.024Z,12.38
2023-04-30T06:48:46.835Z,7.75
2023-04-30T06:49:20.441Z,8.57
2023-04-30T06:49:53.995Z,11.55
2023-04-30T06:50:28.517Z,9.57
2023-04-30T06:51:01.946Z,13.32
2023-04-30T06:51:35.123Z,6.70
2023-04-30T06:52:09.644Z,10.02
2023-04-30T06:52:43.231Z,13.10
2023-04-30T06:53:17.639Z,8.02
2023-04-30T06:53:51.764Z,7.72
2023-04-30T06:54:27.413Z,10.25
2023-04-30T06:55:01.144Z,9.70
2023-04-30T06:55:35.074Z,8.93
2023-04-30T06:56:09.337Z,9.93
2023-04-30T06:56:45.293Z,7.30
2023-04-30T06:57:19.354Z,7.57
2023-04-30T06:57:52.680Z,7.90
2023-04-30T06:58:29.676Z,8.20
2023-04-30T06:59:04.134Z,6.00
2023-04-30T06:59:39.622Z,5.80
2023-04-30T07:00:16.020Z,9.23
2023-04-30T07:00:49.065Z,7.55
2023-04-30T07:01:24.080Z,26.70
2023-04-30T07:01:59.254Z,8.68
2023-04-30T07:02:32.475Z,6.25
2023-04-30T07:03:07.405Z,7.97
2023-04-30T07:03:42.992Z,7.20
2023-04-30T07:04:17.491Z,8.88
2023-04-30T07:04:51.935Z,9.82
2023-04-30T07:05:26.624Z,8.27
2023-04-30T07:06:00.950Z,8.10
2023-04-30T07:06:37.116Z,6.63
2023-04-30T07:07:10.401Z,6.75
2023-04-30T07:07:43.920Z,8.02
2023-04-30T07:08:18.248Z,7.38
2023-04-30T07:08:51.246Z,5.95
2023-04-30T07:09:26.816Z,7.75
2023-04-30T07:10:00.007Z,9.32
2023-04-30T07:10:34.050Z,10.60
2023-04-30T07:11:08.650Z,6.40
2023-04-30T07:11:43.775Z,7.72
2023-04-30T07:12:17.945Z,7.05
2023-04-30T07:12:51.869Z,7.07
2023-04-30T07:13:28.251Z,8.90
2023-04-30T07:14:01.260Z,11.77
2023-04-30T07:14:34.672Z,7.13
2023-04-30T07:15:11.459Z,6.88
2023-04-30T07:15:45.054Z,7.57
2023-04-30T07:16:18.131Z,6.93
2023-04-30T07:16:53.965Z,8.15
2023-04-30T07:17:27.904Z,7.07
2023-04-30T07:18:01.525Z,8.75
2023-04-30T07:18:37.986Z,7.10
2023-04-30T07:19:11.564Z,11.68
2023-04-30T07:19:47.139Z,7.57
2023-04-30T07:20:21.968Z,7.00
2023-04-30T07:20:56.105Z,8.52
2023-04-30T07:21:32.200Z,8.13
2023-04-30T07:22:06.722Z,6.95
2023-04-30T07:22:40.578Z,7.18
2023-04-30T07:23:14.857Z,7.60
2023-04-30T07:23:51.715Z,8.90
2023-04-30T07:24:26.969Z,9.13
2023-04-30T07:25:01.785Z,6.75
2023-04-30T07:25:36.406Z,9.50
2023-04-30T07:26:11.768Z,5.97
2023-04-30T07:26:46.972Z,6.90
2023-04-30T07:27:20.542Z,7.82
2023-04-30T07:27:57.345Z,9.43
2023-04-30T07:28:30.764Z,5.85
2023-04-30T07:29:04.515Z,8.57
2023-04-30T07:29:39.657Z,6.15
2023-04-30T07:30:14.082Z,7.00
2023-04-30T07:30:48.712Z,6.30
2023-04-30T07:31:22.448Z,7.25
2023-04-30T07:31:56.718Z,12.15
2023-04-30T07:32:32.265Z,7.13
2023-04-30T07:33:06.442Z,7.20
2023-04-30T07:33:43.211Z,20.42
2023-04-30T07:34:16.727Z,7.97
2023-04-30T07:34:52.543Z,5.97
2023-04-30T07:35:26.730Z,9.55
2023-04-30T07:36:00.571Z,10.73
2023-04-30T07:36:35.261Z,6.88
2023-04-30T07:37:10.763Z,6.97
2023-04-30T07:37:44.721Z,9.23
2023-04-30T07:38:19.691Z,6.30
2023-04-30T07:38:54.507Z,6.82
2023-04-30T07:39:29.272Z,8.57
2023-04-30T07:40:04.255Z,6.93